sensor_id;sensor_type;location;lat;lon;timestamp;pressure;altitude;pressure_sealevel;temperature;humidity
58385;BME280;44185;47.844;8.966;2023-03-30T00:02:24;96093.44;;;10.59;96.52
58385;BME280;44185;47.844;8.966;2023-03-30T00:04:50;96085.53;;;10.69;96.32
58385;BME280;44185;47.844;8.966;2023-03-30T00:07:16;96080.25;;;10.69;95.91
58385;BME280;44185;47.844;8.966;2023-03-30T00:09:43;96090.50;;;10.62;97.21
58385;BME280;44185;47.844;8.966;2023-03-30T00:12:09;96080.78;;;10.63;98.27
58385;BME280;44185;47.844;8.966;2023-03-30T00:14:35;96081.16;;;10.48;100.00
58385;BME280;44185;47.844;8.966;2023-03-30T00:17:01;96084.75;;;10.47;100.00
58385;BME280;44185;47.844;8.966;2023-03-30T00:19:26;96069.03;;;10.45;100.00
58385;BME280;44185;47.844;8.966;2023-03-30T00:21:51;96075.53;;;10.41;100.00
58385;BME280;44185;47.844;8.966;2023-03-30T00:24:17;96063.69;;;10.35;100.00
58385;BME280;44185;47.844;8.966;2023-03-30T00:26:44;96061.97;;;10.24;100.00
58385;BME280;44185;47.844;8.966;2023-03-30T00:29:09;96065.78;;;10.32;100.00
58385;BME280;44185;47.844;8.966;2023-03-30T00:31:35;96059.25;;;10.36;100.00
58385;BME280;44185;47.844;8.966;2023-03-30T00:34:00;96050.72;;;10.32;100.00
58385;BME280;44185;47.844;8.966;2023-03-30T00:36:25;96052.28;;;10.35;100.00
58385;BME280;44185;47.844;8.966;2023-03-30T00:38:51;96043.53;;;10.34;99.19
58385;BME280;44185;47.844;8.966;2023-03-30T00:41:16;96030.56;;;10.41;99.27
58385;BME280;44185;47.844;8.966;2023-03-30T00:44:02;96015.53;;;10.32;100.00
58385;BME280;44185;47.844;8.966;2023-03-30T00:46:28;96019.06;;;10.01;100.00
58385;BME280;44185;47.844;8.966;2023-03-30T00:48:57;96015.44;;;9.92;100.00
58385;BME280;44185;47.844;8.966;2023-03-30T00:51:25;96012.63;;;9.94;100.00
58385;BME280;44185;47.844;8.966;2023-03-30T00:53:54;96021.25;;;9.96;100.00
58385;BME280;44185;47.844;8.966;2023-03-30T00:56:25;96008.31;;;9.93;100.00
58385;BME280;44185;47.844;8.966;2023-03-30T00:58:53;96014.81;;;9.78;100.00
58385;BME280;44185;47.844;8.966;2023-03-30T01:01:20;96011.75;;;9.83;100.00
58385;BME280;44185;47.844;8.966;2023-03-30T01:03:47;96015.78;;;9.77;100.00
58385;BME280;44185;47.844;8.966;2023-03-30T01:06:14;96018.84;;;9.83;100.00
58385;BME280;44185;47.844;8.966;2023-03-30T01:08:40;96015.53;;;9.90;100.00
58385;BME280;44185;47.844;8.966;2023-03-30T01:11:06;96022.38;;;9.93;100.00
58385;BME280;44185;47.844;8.966;2023-03-30T01:13:34;96023.91;;;9.96;100.00
58385;BME280;44185;47.844;8.966;2023-03-30T01:16:08;96024.34;;;10.01;100.00
58385;BME280;44185;47.844;8.966;2023-03-30T01:18:44;96024.50;;;10.09;100.00
58385;BME280;44185;47.844;8.966;2023-03-30T01:21:39;96015.06;;;10.17;100.00
58385;BME280;44185;47.844;8.966;2023-03-30T01:24:38;96007.69;;;10.20;100.00
58385;BME280;44185;47.844;8.966;2023-03-30T01:27:17;96003.81;;;10.24;100.00
58385;BME280;44185;47.844;8.966;2023-03-30T01:30:04;96005.34;;;10.27;99.91
58385;BME280;44185;47.844;8.966;2023-03-30T01:32:50;96012.56;;;10.25;99.52
58385;BME280;44185;47.844;8.966;2023-03-30T01:35:44;96012.56;;;10.25;100.00
58385;BME280;44185;47.844;8.966;2023-03-30T01:38:35;96017.72;;;10.17;100.00
58385;BME280;44185;47.844;8.966;2023-03-30T01:41:11;96010.75;;;10.16;100.00
58385;BME280;44185;47.844;8.966;2023-03-30T01:43:45;96015.63;;;10.10;100.00
58385;BME280;44185;47.844;8.966;2023-03-30T01:46:18;96015.34;;;10.14;100.00
58385;BME280;44185;47.844;8.966;2023-03-30T01:48:48;96014.25;;;10.16;100.00
58385;BME280;44185;47.844;8.966;2023-03-30T01:51:19;96007.69;;;10.20;100.00
58385;BME280;44185;47.844;8.966;2023-03-30T01:53:47;96020.75;;;10.12;100.00
58385;BME280;44185;47.844;8.966;2023-03-30T01:56:20;96013.94;;;10.09;100.00
58385;BME280;44185;47.844;8.966;2023-03-30T01:58:51;96019.63;;;10.05;100.00
58385;BME280;44185;47.844;8.966;2023-03-30T02:01:18;96018.94;;;10.03;100.00
58385;BME280;44185;47.844;8.966;2023-03-30T02:03:48;96014.44;;;9.93;100.00
58385;BME280;44185;47.844;8.966;2023-03-30T02:06:19;96020.97;;;9.89;100.00
58385;BME280;44185;47.844;8.966;2023-03-30T02:08:47;96018.34;;;9.89;100.00
58385;BME280;44185;47.844;8.966;2023-03-30T02:11:13;96025.56;;;9.87;100.00
58385;BME280;44185;47.844;8.966;2023-03-30T02:13:40;96026.53;;;9.86;100.00
58385;BME280;44185;47.844;8.966;2023-03-30T02:16:11;96028.75;;;9.90;100.00
58385;BME280;44185;47.844;8.966;2023-03-30T02:18:37;96039.47;;;9.89;100.00
58385;BME280;44185;47.844;8.966;2023-03-30T02:21:03;96046.72;;;9.87;100.00
58385;BME280;44185;47.844;8.966;2023-03-30T02:23:31;96035.84;;;9.90;100.00
58385;BME280;44185;47.844;8.966;2023-03-30T02:25:58;96041.97;;;9.90;100.00
58385;BME280;44185;47.844;8.966;2023-03-30T02:28:24;96050.34;;;9.96;100.00
58385;BME280;44185;47.844;8.966;2023-03-30T02:30:51;96069.84;;;9.95;100.00
58385;BME280;44185;47.844;8.966;2023-03-30T02:33:23;96069.44;;;9.99;100.00
58385;BME280;44185;47.844;8.966;2023-03-30T02:35:59;96066.69;;;10.11;100.00
58385;BME280;44185;47.844;8.966;2023-03-30T02:38:39;96060.41;;;10.12;100.00
58385;BME280;44185;47.844;8.966;2023-03-30T02:41:18;96055.13;;;10.12;100.00
58385;BME280;44185;47.844;8.966;2023-03-30T02:43:52;96046.50;;;10.10;100.00
58385;BME280;44185;47.844;8.966;2023-03-30T02:46:34;96044.78;;;9.99;100.00
58385;BME280;44185;47.844;8.966;2023-03-30T02:49:12;96041.75;;;10.04;100.00
58385;BME280;44185;47.844;8.966;2023-03-30T02:51:43;96032.41;;;9.99;100.00
58385;BME280;44185;47.844;8.966;2023-03-30T02:54:20;96018.50;;;9.97;100.00
58385;BME280;44185;47.844;8.966;2023-03-30T02:56:51;96006.69;;;10.01;100.00
58385;BME280;44185;47.844;8.966;2023-03-30T02:59:21;95988.00;;;9.93;100.00
58385;BME280;44185;47.844;8.966;2023-03-30T03:01:54;95969.28;;;9.65;100.00
58385;BME280;44185;47.844;8.966;2023-03-30T03:04:22;95954.06;;;9.47;100.00
58385;BME280;44185;47.844;8.966;2023-03-30T03:06:48;95951.69;;;9.44;100.00
58385;BME280;44185;47.844;8.966;2023-03-30T03:09:15;95940.97;;;9.45;100.00
58385;BME280;44185;47.844;8.966;2023-03-30T03:11:40;95928.31;;;9.39;100.00
58385;BME280;44185;47.844;8.966;2023-03-30T03:14:05;95925.31;;;9.22;100.00
58385;BME280;44185;47.844;8.966;2023-03-30T03:16:31;95925.66;;;9.08;100.00
58385;BME280;44185;47.844;8.966;2023-03-30T03:18:58;95923.28;;;9.05;100.00
58385;BME280;44185;47.844;8.966;2023-03-30T03:21:23;95916.13;;;9.17;100.00
58385;BME280;44185;47.844;8.966;2023-03-30T03:23:49;95921.91;;;9.10;100.00
58385;BME280;44185;47.844;8.966;2023-03-30T03:26:14;95917.56;;;8.99;100.00
58385;BME280;44185;47.844;8.966;2023-03-30T03:28:40;95922.44;;;9.04;100.00
58385;BME280;44185;47.844;8.966;2023-03-30T03:31:05;95916.59;;;9.00;100.00
58385;BME280;44185;47.844;8.966;2023-03-30T03:33:31;95920.41;;;8.86;100.00
58385;BME280;44185;47.844;8.966;2023-03-30T03:35:58;95906.56;;;8.94;100.00
58385;BME280;44185;47.844;8.966;2023-03-30T03:38:24;95900.69;;;8.90;100.00
58385;BME280;44185;47.844;8.966;2023-03-30T03:40:50;95900.25;;;8.85;100.00
58385;BME280;44185;47.844;8.966;2023-03-30T03:43:16;95896.91;;;8.83;100.00
58385;BME280;44185;47.844;8.966;2023-03-30T03:45:43;95891.94;;;8.90;100.00
58385;BME280;44185;47.844;8.966;2023-03-30T03:48:08;95888.84;;;8.85;100.00
58385;BME280;44185;47.844;8.966;2023-03-30T03:50:34;95878.44;;;8.83;100.00
58385;BME280;44185;47.844;8.966;2023-03-30T03:53:01;95883.31;;;8.88;100.00
58385;BME280;44185;47.844;8.966;2023-03-30T03:55:26;95885.97;;;8.88;100.00
58385;BME280;44185;47.844;8.966;2023-03-30T03:57:51;95876.94;;;8.90;100.00
58385;BME280;44185;47.844;8.966;2023-03-30T04:00:18;95871.03;;;8.77;100.00
58385;BME280;44185;47.844;8.966;2023-03-30T04:02:43;95872.97;;;8.75;100.00
58385;BME280;44185;47.844;8.966;2023-03-30T04:05:09;95869.75;;;8.71;100.00
58385;BME280;44185;47.844;8.966;2023-03-30T04:07:35;95863.53;;;8.72;100.00
58385;BME280;44185;47.844;8.966;2023-03-30T04:10:02;95852.00;;;8.73;100.00
58385;BME280;44185;47.844;8.966;2023-03-30T04:12:27;95857.41;;;8.72;100.00
58385;BME280;44185;47.844;8.966;2023-03-30T04:14:53;95863.38;;;8.74;100.00
58385;BME280;44185;47.844;8.966;2023-03-30T04:17:19;95867.75;;;8.63;100.00
58385;BME280;44185;47.844;8.966;2023-03-30T04:19:44;95860.69;;;8.64;100.00
58385;BME280;44185;47.844;8.966;2023-03-30T04:22:10;95847.09;;;8.68;100.00
58385;BME280;44185;47.844;8.966;2023-03-30T04:24:35;95840.63;;;8.73;100.00
58385;BME280;44185;47.844;8.966;2023-03-30T04:27:02;95828.72;;;8.57;100.00
58385;BME280;44185;47.844;8.966;2023-03-30T04:29:27;95843.47;;;8.60;100.00
58385;BME280;44185;47.844;8.966;2023-03-30T04:31:53;95840.91;;;8.58;100.00
58385;BME280;44185;47.844;8.966;2023-03-30T04:34:19;95819.38;;;8.53;100.00
58385;BME280;44185;47.844;8.966;2023-03-30T04:36:44;95811.72;;;8.50;100.00
58385;BME280;44185;47.844;8.966;2023-03-30T04:39:10;95805.69;;;8.38;100.00
58385;BME280;44185;47.844;8.966;2023-03-30T04:41:36;95812.94;;;8.24;100.00
58385;BME280;44185;47.844;8.966;2023-03-30T04:44:04;95825.03;;;8.27;100.00
58385;BME280;44185;47.844;8.966;2023-03-30T04:46:30;95795.66;;;8.31;100.00
58385;BME280;44185;47.844;8.966;2023-03-30T04:48:56;95788.28;;;8.25;100.00
58385;BME280;44185;47.844;8.966;2023-03-30T04:51:21;95804.13;;;8.14;100.00
58385;BME280;44185;47.844;8.966;2023-03-30T04:53:47;95796.38;;;8.12;100.00
58385;BME280;44185;47.844;8.966;2023-03-30T04:56:12;95787.19;;;8.06;100.00
58385;BME280;44185;47.844;8.966;2023-03-30T04:58:38;95796.88;;;8.06;100.00
58385;BME280;44185;47.844;8.966;2023-03-30T05:01:05;95787.19;;;8.06;100.00
58385;BME280;44185;47.844;8.966;2023-03-30T05:03:31;95794.91;;;7.86;100.00
58385;BME280;44185;47.844;8.966;2023-03-30T05:05:56;95795.75;;;7.87;100.00
58385;BME280;44185;47.844;8.966;2023-03-30T05:08:22;95803.28;;;7.92;100.00
58385;BME280;44185;47.844;8.966;2023-03-30T05:10:48;95801.88;;;7.87;100.00
58385;BME280;44185;47.844;8.966;2023-03-30T05:13:13;95807.53;;;7.83;100.00
58385;BME280;44185;47.844;8.966;2023-03-30T05:15:39;95810.84;;;7.85;100.00
58385;BME280;44185;47.844;8.966;2023-03-30T05:18:06;95795.31;;;7.82;100.00
58385;BME280;44185;47.844;8.966;2023-03-30T05:20:31;95794.06;;;7.86;100.00
58385;BME280;44185;47.844;8.966;2023-03-30T05:22:57;95809.06;;;7.85;100.00
58385;BME280;44185;47.844;8.966;2023-03-30T05:25:22;95805.91;;;7.92;100.00
58385;BME280;44185;47.844;8.966;2023-03-30T05:27:48;95800.78;;;7.90;100.00
58385;BME280;44185;47.844;8.966;2023-03-30T05:30:14;95804.25;;;7.90;100.00
58385;BME280;44185;47.844;8.966;2023-03-30T05:32:39;95796.06;;;7.94;100.00
58385;BME280;44185;47.844;8.966;2023-03-30T05:35:06;95788.50;;;8.00;100.00
58385;BME280;44185;47.844;8.966;2023-03-30T05:37:32;95799.75;;;8.03;100.00
58385;BME280;44185;47.844;8.966;2023-03-30T05:39:57;95801.78;;;7.99;100.00
58385;BME280;44185;47.844;8.966;2023-03-30T05:42:23;95803.09;;;8.05;100.00
58385;BME280;44185;47.844;8.966;2023-03-30T05:44:49;95807.66;;;8.03;100.00
58385;BME280;44185;47.844;8.966;2023-03-30T05:47:14;95808.75;;;8.00;100.00
58385;BME280;44185;47.844;8.966;2023-03-30T05:49:40;95819.88;;;8.04;100.00
58385;BME280;44185;47.844;8.966;2023-03-30T05:52:07;95822.28;;;8.07;100.00
58385;BME280;44185;47.844;8.966;2023-03-30T05:54:32;95831.00;;;8.07;100.00
58385;BME280;44185;47.844;8.966;2023-03-30T05:56:58;95830.88;;;8.09;100.00
58385;BME280;44185;47.844;8.966;2023-03-30T05:59:23;95833.13;;;8.14;100.00
58385;BME280;44185;47.844;8.966;2023-03-30T06:01:49;95834.81;;;8.15;100.00
58385;BME280;44185;47.844;8.966;2023-03-30T06:04:14;95816.38;;;8.15;100.00
58385;BME280;44185;47.844;8.966;2023-03-30T06:06:40;95815.00;;;8.20;100.00
58385;BME280;44185;47.844;8.966;2023-03-30T06:09:07;95824.59;;;8.21;100.00
58385;BME280;44185;47.844;8.966;2023-03-30T06:11:32;95804.53;;;8.30;100.00
58385;BME280;44185;47.844;8.966;2023-03-30T06:13:58;95812.31;;;8.32;100.00
58385;BME280;44185;47.844;8.966;2023-03-30T06:16:23;95799.31;;;8.40;100.00
58385;BME280;44185;47.844;8.966;2023-03-30T06:18:49;95823.75;;;8.42;100.00
58385;BME280;44185;47.844;8.966;2023-03-30T06:21:14;95812.16;;;8.55;100.00
58385;BME280;44185;47.844;8.966;2023-03-30T06:23:40;95825.81;;;8.60;100.00
58385;BME280;44185;47.844;8.966;2023-03-30T06:26:07;95824.06;;;8.71;100.00
58385;BME280;44185;47.844;8.966;2023-03-30T06:28:33;95822.47;;;8.79;100.00
58385;BME280;44185;47.844;8.966;2023-03-30T06:30:58;95822.41;;;9.01;100.00
58385;BME280;44185;47.844;8.966;2023-03-30T06:33:24;95820.81;;;9.20;100.00
58385;BME280;44185;47.844;8.966;2023-03-30T06:35:51;95821.81;;;9.29;100.00
58385;BME280;44185;47.844;8.966;2023-03-30T06:38:18;95808.38;;;9.42;100.00
58385;BME280;44185;47.844;8.966;2023-03-30T06:40:43;95805.69;;;9.32;100.00
58385;BME280;44185;47.844;8.966;2023-03-30T06:43:15;95805.25;;;9.17;100.00
58385;BME280;44185;47.844;8.966;2023-03-30T06:45:40;95808.56;;;9.19;100.00
58385;BME280;44185;47.844;8.966;2023-03-30T06:48:06;95797.31;;;9.17;100.00
58385;BME280;44185;47.844;8.966;2023-03-30T06:50:31;95778.75;;;9.38;100.00
58385;BME280;44185;47.844;8.966;2023-03-30T06:52:57;95774.59;;;9.55;100.00
58385;BME280;44185;47.844;8.966;2023-03-30T06:55:22;95782.41;;;9.67;100.00
58385;BME280;44185;47.844;8.966;2023-03-30T06:57:47;95787.69;;;9.57;100.00
58385;BME280;44185;47.844;8.966;2023-03-30T07:00:15;95789.91;;;9.72;100.00
58385;BME280;44185;47.844;8.966;2023-03-30T07:02:41;95791.59;;;9.73;100.00
58385;BME280;44185;47.844;8.966;2023-03-30T07:05:07;95794.22;;;9.93;100.00
58385;BME280;44185;47.844;8.966;2023-03-30T07:07:33;95802.59;;;9.98;100.00
58385;BME280;44185;47.844;8.966;2023-03-30T07:09:59;95824.41;;;10.10;100.00
58385;BME280;44185;47.844;8.966;2023-03-30T07:12:24;95832.50;;;10.18;100.00
58385;BME280;44185;47.844;8.966;2023-03-30T07:14:50;95826.91;;;10.31;100.00
58385;BME280;44185;47.844;8.966;2023-03-30T07:17:17;95844.72;;;10.39;100.00
58385;BME280;44185;47.844;8.966;2023-03-30T07:19:42;95841.94;;;10.51;100.00
58385;BME280;44185;47.844;8.966;2023-03-30T07:22:08;95855.44;;;10.57;100.00
58385;BME280;44185;47.844;8.966;2023-03-30T07:24:34;95853.06;;;10.54;100.00
58385;BME280;44185;47.844;8.966;2023-03-30T07:26:59;95851.84;;;10.59;100.00
58385;BME280;44185;47.844;8.966;2023-03-30T07:29:25;95846.34;;;10.70;100.00
58385;BME280;44185;47.844;8.966;2023-03-30T07:31:50;95833.41;;;10.77;100.00
58385;BME280;44185;47.844;8.966;2023-03-30T07:34:17;95838.66;;;10.87;100.00
58385;BME280;44185;47.844;8.966;2023-03-30T07:36:42;95841.47;;;10.85;100.00
58385;BME280;44185;47.844;8.966;2023-03-30T07:39:08;95854.09;;;10.92;100.00
58385;BME280;44185;47.844;8.966;2023-03-30T07:41:34;95858.16;;;10.96;100.00
58385;BME280;44185;47.844;8.966;2023-03-30T07:43:59;95852.25;;;11.02;100.00
58385;BME280;44185;47.844;8.966;2023-03-30T07:46:25;95847.91;;;11.11;100.00
58385;BME280;44185;47.844;8.966;2023-03-30T07:48:50;95854.00;;;11.21;100.00
58385;BME280;44185;47.844;8.966;2023-03-30T07:51:17;95849.66;;;11.30;100.00
58385;BME280;44185;47.844;8.966;2023-03-30T07:53:43;95847.41;;;11.36;100.00
58385;BME280;44185;47.844;8.966;2023-03-30T07:56:08;95857.41;;;11.42;100.00
58385;BME280;44185;47.844;8.966;2023-03-30T07:58:35;95839.78;;;11.51;100.00
58385;BME280;44185;47.844;8.966;2023-03-30T08:01:00;95854.41;;;11.55;100.00
58385;BME280;44185;47.844;8.966;2023-03-30T08:03:26;95857.59;;;11.59;100.00
58385;BME280;44185;47.844;8.966;2023-03-30T08:05:52;95868.66;;;11.54;100.00
58385;BME280;44185;47.844;8.966;2023-03-30T08:08:19;95858.16;;;11.62;100.00
58385;BME280;44185;47.844;8.966;2023-03-30T08:10:45;95860.47;;;11.65;100.00
58385;BME280;44185;47.844;8.966;2023-03-30T08:13:10;95860.72;;;11.72;100.00
58385;BME280;44185;47.844;8.966;2023-03-30T08:15:36;95854.69;;;11.80;100.00
58385;BME280;44185;47.844;8.966;2023-03-30T08:18:04;95851.03;;;11.81;100.00
58385;BME280;44185;47.844;8.966;2023-03-30T08:20:29;95858.09;;;11.90;100.00
58385;BME280;44185;47.844;8.966;2023-03-30T08:22:54;95847.59;;;11.99;100.00
58385;BME280;44185;47.844;8.966;2023-03-30T08:25:21;95861.06;;;12.06;100.00
58385;BME280;44185;47.844;8.966;2023-03-30T08:27:47;95860.91;;;12.07;100.00
58385;BME280;44185;47.844;8.966;2023-03-30T08:30:13;95859.91;;;12.08;100.00
58385;BME280;44185;47.844;8.966;2023-03-30T08:32:39;95858.28;;;12.07;100.00
58385;BME280;44185;47.844;8.966;2023-03-30T08:35:07;95856.69;;;12.15;100.00
58385;BME280;44185;47.844;8.966;2023-03-30T08:37:32;95855.28;;;12.10;100.00
58385;BME280;44185;47.844;8.966;2023-03-30T08:39:58;95851.00;;;12.09;100.00
58385;BME280;44185;47.844;8.966;2023-03-30T08:42:42;95854.72;;;12.17;100.00
58385;BME280;44185;47.844;8.966;2023-03-30T08:45:12;95852.44;;;12.22;100.00
58385;BME280;44185;47.844;8.966;2023-03-30T08:47:41;95851.22;;;12.16;100.00
58385;BME280;44185;47.844;8.966;2023-03-30T08:50:13;95850.81;;;12.11;100.00
58385;BME280;44185;47.844;8.966;2023-03-30T08:52:39;95848.16;;;12.11;100.00
58385;BME280;44185;47.844;8.966;2023-03-30T08:55:09;95863.94;;;12.12;100.00
58385;BME280;44185;47.844;8.966;2023-03-30T08:57:46;95864.75;;;12.13;100.00
58385;BME280;44185;47.844;8.966;2023-03-30T09:00:20;95856.00;;;12.12;100.00
58385;BME280;44185;47.844;8.966;2023-03-30T09:02:50;95854.56;;;12.18;100.00
58385;BME280;44185;47.844;8.966;2023-03-30T09:05:20;95854.81;;;12.25;100.00
58385;BME280;44185;47.844;8.966;2023-03-30T09:07:53;95868.91;;;12.26;100.00
58385;BME280;44185;47.844;8.966;2023-03-30T09:10:20;95875.19;;;12.25;100.00
58385;BME280;44185;47.844;8.966;2023-03-30T09:12:50;95883.69;;;12.28;100.00
58385;BME280;44185;47.844;8.966;2023-03-30T09:15:18;95886.78;;;12.23;100.00
58385;BME280;44185;47.844;8.966;2023-03-30T09:17:46;95889.03;;;12.18;100.00
58385;BME280;44185;47.844;8.966;2023-03-30T09:20:15;95898.53;;;12.21;100.00
58385;BME280;44185;47.844;8.966;2023-03-30T09:22:43;95902.63;;;12.15;100.00
58385;BME280;44185;47.844;8.966;2023-03-30T09:25:17;95907.66;;;12.08;100.00
58385;BME280;44185;47.844;8.966;2023-03-30T09:27:53;95922.44;;;12.11;100.00
58385;BME280;44185;47.844;8.966;2023-03-30T09:30:27;95931.81;;;12.05;100.00
58385;BME280;44185;47.844;8.966;2023-03-30T09:32:57;95953.03;;;12.05;100.00
58385;BME280;44185;47.844;8.966;2023-03-30T09:35:27;95972.06;;;12.00;100.00
58385;BME280;44185;47.844;8.966;2023-03-30T09:37:54;95960.47;;;12.01;100.00
58385;BME280;44185;47.844;8.966;2023-03-30T09:40:28;95974.59;;;11.92;100.00
58385;BME280;44185;47.844;8.966;2023-03-30T09:43:08;96010.91;;;11.92;100.00
58385;BME280;44185;47.844;8.966;2023-03-30T09:45:36;96022.09;;;11.85;100.00
58385;BME280;44185;47.844;8.966;2023-03-30T09:48:04;96023.66;;;11.78;100.00
58385;BME280;44185;47.844;8.966;2023-03-30T09:50:29;96025.34;;;11.69;100.00
58385;BME280;44185;47.844;8.966;2023-03-30T09:52:58;96025.53;;;11.57;100.00
58385;BME280;44185;47.844;8.966;2023-03-30T09:55:28;96035.19;;;11.49;100.00
58385;BME280;44185;47.844;8.966;2023-03-30T09:58:11;96054.59;;;11.29;100.00
58385;BME280;44185;47.844;8.966;2023-03-30T10:00:37;96072.59;;;11.16;100.00
58385;BME280;44185;47.844;8.966;2023-03-30T10:03:04;96075.94;;;11.08;100.00
58385;BME280;44185;47.844;8.966;2023-03-30T10:05:31;96064.50;;;10.97;100.00
58385;BME280;44185;47.844;8.966;2023-03-30T10:07:58;96065.47;;;10.96;100.00
58385;BME280;44185;47.844;8.966;2023-03-30T10:10:31;96066.03;;;10.80;100.00
58385;BME280;44185;47.844;8.966;2023-03-30T10:13:03;96043.59;;;10.74;100.00
58385;BME280;44185;47.844;8.966;2023-03-30T10:15:31;96038.72;;;10.70;100.00
58385;BME280;44185;47.844;8.966;2023-03-30T10:18:01;96028.28;;;10.68;100.00
58385;BME280;44185;47.844;8.966;2023-03-30T10:20:29;96038.00;;;10.67;100.00
58385;BME280;44185;47.844;8.966;2023-03-30T10:23:00;96035.38;;;10.67;100.00
58385;BME280;44185;47.844;8.966;2023-03-30T10:25:28;96026.59;;;10.57;100.00
58385;BME280;44185;47.844;8.966;2023-03-30T10:27:55;96027.56;;;10.56;100.00
58385;BME280;44185;47.844;8.966;2023-03-30T10:30:23;96031.03;;;10.56;100.00
58385;BME280;44185;47.844;8.966;2023-03-30T10:32:51;96021.25;;;10.47;100.00
58385;BME280;44185;47.844;8.966;2023-03-30T10:35:20;96021.03;;;10.60;100.00
58385;BME280;44185;47.844;8.966;2023-03-30T10:37:46;96026.31;;;10.70;100.00
58385;BME280;44185;47.844;8.966;2023-03-30T10:40:17;96025.09;;;10.74;100.00
58385;BME280;44185;47.844;8.966;2023-03-30T10:42:43;96031.22;;;10.75;100.00
58385;BME280;44185;47.844;8.966;2023-03-30T10:45:15;96038.44;;;10.73;100.00
58385;BME280;44185;47.844;8.966;2023-03-30T10:47:59;96042.22;;;10.80;100.00
58385;BME280;44185;47.844;8.966;2023-03-30T10:50:34;96039.84;;;10.77;100.00
58385;BME280;44185;47.844;8.966;2023-03-30T10:53:16;96061.03;;;10.77;100.00
58385;BME280;44185;47.844;8.966;2023-03-30T10:55:49;96058.09;;;10.80;100.00
58385;BME280;44185;47.844;8.966;2023-03-30T10:58:26;96059.06;;;10.79;100.00
58385;BME280;44185;47.844;8.966;2023-03-30T11:01:07;96056.41;;;10.79;100.00
58385;BME280;44185;47.844;8.966;2023-03-30T11:03:38;96051.97;;;10.79;100.00
58385;BME280;44185;47.844;8.966;2023-03-30T11:06:11;96048.22;;;10.82;100.00
58385;BME280;44185;47.844;8.966;2023-03-30T11:08:41;96052.50;;;10.83;100.00
58385;BME280;44185;47.844;8.966;2023-03-30T11:11:10;96049.31;;;10.89;100.00
58385;BME280;44185;47.844;8.966;2023-03-30T11:13:40;96049.31;;;10.99;100.00
58385;BME280;44185;47.844;8.966;2023-03-30T11:16:11;96053.22;;;10.85;100.00
58385;BME280;44185;47.844;8.966;2023-03-30T11:18:44;96059.34;;;10.86;100.00
58385;BME280;44185;47.844;8.966;2023-03-30T11:21:16;96063.53;;;10.78;100.00
58385;BME280;44185;47.844;8.966;2023-03-30T11:23:48;96064.50;;;10.87;100.00
58385;BME280;44185;47.844;8.966;2023-03-30T11:26:19;96067.69;;;10.81;100.00
58385;BME280;44185;47.844;8.966;2023-03-30T11:28:56;96067.97;;;10.78;100.00
58385;BME280;44185;47.844;8.966;2023-03-30T11:31:44;96069.09;;;10.75;100.00
58385;BME280;44185;47.844;8.966;2023-03-30T11:34:20;96070.75;;;10.76;100.00
58385;BME280;44185;47.844;8.966;2023-03-30T11:36:55;96081.63;;;10.73;100.00
58385;BME280;44185;47.844;8.966;2023-03-30T11:39:28;96069.09;;;10.75;100.00
58385;BME280;44185;47.844;8.966;2023-03-30T11:41:57;96069.09;;;10.75;100.00
58385;BME280;44185;47.844;8.966;2023-03-30T11:44:24;96064.91;;;10.73;100.00
58385;BME280;44185;47.844;8.966;2023-03-30T11:46:56;96070.91;;;10.75;100.00
58385;BME280;44185;47.844;8.966;2023-03-30T11:49:41;96063.63;;;10.67;100.00
58385;BME280;44185;47.844;8.966;2023-03-30T11:52:18;96064.91;;;10.73;100.00
58385;BME280;44185;47.844;8.966;2023-03-30T11:57:51;96063.25;;;10.92;100.00
58385;BME280;44185;47.844;8.966;2023-03-30T12:00:30;96062.28;;;10.93;100.00
58385;BME280;44185;47.844;8.966;2023-03-30T12:03:06;96071.91;;;11.04;100.00
58385;BME280;44185;47.844;8.966;2023-03-30T12:05:40;96080.69;;;11.14;100.00
58385;BME280;44185;47.844;8.966;2023-03-30T12:08:18;96074.97;;;11.09;100.00
58385;BME280;44185;47.844;8.966;2023-03-30T12:10:54;96079.13;;;11.01;100.00
58385;BME280;44185;47.844;8.966;2023-03-30T12:13:25;96079.13;;;10.92;100.00
58385;BME280;44185;47.844;8.966;2023-03-30T12:15:56;96077.19;;;10.94;100.00
58385;BME280;44185;47.844;8.966;2023-03-30T12:18:28;96074.41;;;10.95;100.00
58385;BME280;44185;47.844;8.966;2023-03-30T12:21:08;96082.47;;;10.94;100.00
58385;BME280;44185;47.844;8.966;2023-03-30T12:23:42;96085.97;;;10.84;100.00
58385;BME280;44185;47.844;8.966;2023-03-30T12:26:18;96087.50;;;10.87;100.00
58385;BME280;44185;47.844;8.966;2023-03-30T12:28:55;96075.38;;;10.84;100.00
58385;BME280;44185;47.844;8.966;2023-03-30T12:31:22;96073.25;;;10.78;100.00
58385;BME280;44185;47.844;8.966;2023-03-30T12:33:50;96067.44;;;10.74;100.00
58385;BME280;44185;47.844;8.966;2023-03-30T12:36:35;96065.16;;;10.70;100.00
58385;BME280;44185;47.844;8.966;2023-03-30T12:39:03;96076.06;;;10.66;100.00
58385;BME280;44185;47.844;8.966;2023-03-30T12:41:38;96058.34;;;10.67;100.00
58385;BME280;44185;47.844;8.966;2023-03-30T12:44:23;96057.38;;;10.68;100.00
58385;BME280;44185;47.844;8.966;2023-03-30T12:47:03;96060.03;;;10.78;100.00
58385;BME280;44185;47.844;8.966;2023-03-30T12:49:44;96057.13;;;10.81;100.00
58385;BME280;44185;47.844;8.966;2023-03-30T12:52:24;96043.59;;;10.84;100.00
58385;BME280;44185;47.844;8.966;2023-03-30T12:58:03;96041.38;;;10.89;100.00
58385;BME280;44185;47.844;8.966;2023-03-30T13:03:47;96039.41;;;11.01;100.00
58385;BME280;44185;47.844;8.966;2023-03-30T13:06:21;96033.28;;;11.11;100.00
58385;BME280;44185;47.844;8.966;2023-03-30T13:08:53;96041.09;;;11.12;100.00
58385;BME280;44185;47.844;8.966;2023-03-30T13:11:20;96030.91;;;11.18;100.00
58385;BME280;44185;47.844;8.966;2023-03-30T13:13:53;96032.16;;;11.23;100.00
58385;BME280;44185;47.844;8.966;2023-03-30T13:19:27;96005.31;;;11.46;100.00